createdAt,value
2018-08-11T00:02:18.825Z,21.00
2018-08-11T00:04:46.980Z,21.00
2018-08-11T00:07:15.178Z,21.00
2018-08-11T00:09:43.431Z,21.10
2018-08-11T00:12:11.626Z,21.10
2018-08-11T00:14:39.830Z,21.20
2018-08-11T00:17:08.018Z,21.20
2018-08-11T00:19:36.175Z,21.30
2018-08-11T00:22:04.614Z,21.40
2018-08-11T00:24:32.793Z,21.50
2018-08-11T00:27:00.979Z,21.60
2018-08-11T00:29:29.157Z,21.60
2018-08-11T00:31:57.346Z,21.60
2018-08-11T00:34:25.515Z,21.70
2018-08-11T00:36:53.690Z,21.70
2018-08-11T00:39:21.862Z,21.60
2018-08-11T00:41:50.033Z,21.60
2018-08-11T00:44:18.238Z,21.40
2018-08-11T00:46:46.427Z,21.40
2018-08-11T00:49:14.643Z,21.20
2018-08-11T00:51:42.837Z,21.10
2018-08-11T00:54:11.058Z,21.10
2018-08-11T00:56:39.242Z,21.00
2018-08-11T00:59:07.473Z,20.90
2018-08-11T01:01:35.638Z,20.80
2018-08-11T01:04:03.799Z,20.80
2018-08-11T01:06:31.976Z,20.70
2018-08-11T01:09:00.135Z,20.60
2018-08-11T01:11:28.317Z,20.60
2018-08-11T01:13:56.509Z,20.40
2018-08-11T01:16:24.665Z,20.30
2018-08-11T01:18:52.832Z,20.30
2018-08-11T01:21:21.012Z,20.30
2018-08-11T01:23:49.218Z,20.30
2018-08-11T01:26:17.385Z,20.40
2018-08-11T01:28:45.562Z,20.20
2018-08-11T01:31:13.806Z,20.00
2018-08-11T01:33:41.985Z,19.80
2018-08-11T01:36:10.138Z,19.60
2018-08-11T01:38:38.444Z,19.50
2018-08-11T01:41:06.647Z,19.30
2018-08-11T01:43:34.825Z,19.10
2018-08-11T01:46:03.016Z,19.00
2018-08-11T01:48:31.201Z,19.00
2018-08-11T01:50:59.363Z,18.80
2018-08-11T01:53:27.537Z,18.70
2018-08-11T01:55:55.699Z,18.60
2018-08-11T01:58:23.886Z,18.40
2018-08-11T02:00:52.100Z,18.40
2018-08-11T02:03:20.284Z,18.30
2018-08-11T02:05:48.453Z,18.20
2018-08-11T02:08:16.626Z,18.10
2018-08-11T02:10:44.781Z,18.20
2018-08-11T02:13:12.982Z,18.20
2018-08-11T02:15:41.135Z,18.00
2018-08-11T02:18:09.317Z,18.00
2018-08-11T02:20:37.474Z,17.90
2018-08-11T02:23:05.951Z,17.90
2018-08-11T02:25:34.102Z,17.90
2018-08-11T02:28:02.282Z,17.80
2018-08-11T02:30:30.458Z,17.80
2018-08-11T02:32:58.618Z,17.80
2018-08-11T02:35:26.770Z,17.80
2018-08-11T02:37:54.942Z,17.70
2018-08-11T02:40:23.113Z,17.60
2018-08-11T02:42:51.382Z,17.60
2018-08-11T02:45:19.530Z,17.60
2018-08-11T02:47:47.930Z,17.60
2018-08-11T02:50:16.133Z,17.50
2018-08-11T02:52:44.317Z,17.60
2018-08-11T02:55:12.581Z,17.60
2018-08-11T02:57:40.737Z,17.70
2018-08-11T03:00:10.666Z,17.70
2018-08-11T03:02:38.836Z,17.70
2018-08-11T03:05:07.003Z,17.70
2018-08-11T03:07:35.358Z,17.70
2018-08-11T03:10:03.936Z,17.50
2018-08-11T03:12:32.081Z,17.50
2018-08-11T03:15:00.241Z,17.50
2018-08-11T03:17:28.410Z,17.50
2018-08-11T03:19:56.606Z,17.30
2018-08-11T03:22:24.775Z,17.30
2018-08-11T03:24:52.941Z,17.40
2018-08-11T03:27:21.108Z,17.50
2018-08-11T03:29:49.334Z,17.50
2018-08-11T03:32:17.551Z,17.50
2018-08-11T03:34:45.745Z,17.40
2018-08-11T03:37:13.906Z,17.30
2018-08-11T03:39:42.124Z,17.30
2018-08-11T03:42:10.297Z,17.30
2018-08-11T03:44:38.716Z,17.30
2018-08-11T03:47:06.931Z,17.30
2018-08-11T03:49:35.140Z,17.30
2018-08-11T03:52:03.461Z,17.20
2018-08-11T03:54:31.652Z,17.10
2018-08-11T03:56:59.813Z,17.20
2018-08-11T03:59:27.977Z,17.10
2018-08-11T04:01:56.172Z,17.00
2018-08-11T04:04:24.333Z,16.90
2018-08-11T04:06:52.502Z,16.90
2018-08-11T04:09:20.753Z,16.90
2018-08-11T04:11:48.944Z,16.90
2018-08-11T04:14:17.104Z,16.90
2018-08-11T04:16:45.361Z,16.90
2018-08-11T04:19:13.517Z,16.90
2018-08-11T04:21:41.711Z,16.90
2018-08-11T04:24:10.521Z,17.00
2018-08-11T04:26:38.901Z,17.00
2018-08-11T04:29:07.409Z,17.20
2018-08-11T04:31:35.760Z,17.30
2018-08-11T04:34:03.974Z,17.40
2018-08-11T04:36:32.315Z,17.60
2018-08-11T04:39:00.494Z,17.50
2018-08-11T04:41:28.665Z,17.50
2018-08-11T04:43:56.877Z,17.50
2018-08-11T04:46:25.099Z,17.50
2018-08-11T04:48:53.273Z,17.30
2018-08-11T04:51:21.466Z,17.30
2018-08-11T04:53:49.638Z,17.40
2018-08-11T04:56:17.925Z,17.50
2018-08-11T04:58:46.122Z,17.40
2018-08-11T05:01:14.340Z,17.40
2018-08-11T05:03:42.594Z,17.50
2018-08-11T05:06:10.769Z,17.50
2018-08-11T05:08:38.964Z,17.60
2018-08-11T05:11:07.178Z,17.70
2018-08-11T05:13:35.349Z,17.90
2018-08-11T05:16:03.519Z,17.90
2018-08-11T05:18:31.666Z,17.90
2018-08-11T05:20:59.842Z,17.90
2018-08-11T05:23:28.023Z,17.90
2018-08-11T05:25:56.204Z,17.90
2018-08-11T05:28:24.382Z,18.00
2018-08-11T05:30:52.575Z,18.20
2018-08-11T05:33:20.940Z,18.20
2018-08-11T05:35:48.925Z,18.10
2018-08-11T05:38:17.111Z,18.00
2018-08-11T05:40:45.556Z,18.00
2018-08-11T05:43:13.705Z,18.00
2018-08-11T05:45:41.905Z,18.00
2018-08-11T05:48:10.087Z,18.10
2018-08-11T05:50:38.258Z,18.10
2018-08-11T05:53:06.447Z,18.20
2018-08-11T05:55:34.626Z,18.20
2018-08-11T05:58:02.779Z,18.20
2018-08-11T06:00:30.954Z,18.20
2018-08-11T06:02:59.125Z,18.30
2018-08-11T06:05:27.314Z,18.40
2018-08-11T06:07:55.505Z,18.50
2018-08-11T06:10:23.751Z,18.60
2018-08-11T06:12:51.895Z,18.60
2018-08-11T06:15:20.066Z,18.50
2018-08-11T06:17:48.238Z,18.60
2018-08-11T06:20:16.410Z,18.70
2018-08-11T06:22:44.586Z,18.80
2018-08-11T06:25:12.793Z,18.60
2018-08-11T06:27:41.169Z,18.50
2018-08-11T06:30:10.153Z,18.40
2018-08-11T06:32:38.526Z,18.50
2018-08-11T06:35:07.116Z,18.50
2018-08-11T06:37:35.502Z,18.40
2018-08-11T06:40:03.758Z,18.40
2018-08-11T06:42:31.950Z,18.50
2018-08-11T06:45:00.139Z,18.40
2018-08-11T06:47:28.326Z,18.50
2018-08-11T06:49:56.561Z,18.50
2018-08-11T06:52:24.714Z,18.50
2018-08-11T06:54:52.997Z,18.50
2018-08-11T06:57:21.171Z,18.50
2018-08-11T06:59:49.353Z,18.40
2018-08-11T07:02:17.561Z,18.60
2018-08-11T07:04:45.749Z,18.70
2018-08-11T07:07:13.925Z,18.80
2018-08-11T07:09:42.118Z,18.80
2018-08-11T07:12:10.850Z,18.70
2018-08-11T07:14:39.080Z,18.80
2018-08-11T07:17:07.248Z,18.90
2018-08-11T07:19:35.453Z,19.00
2018-08-11T07:22:03.946Z,19.00
2018-08-11T07:24:32.101Z,19.00
2018-08-11T07:27:00.275Z,19.10
2018-08-11T07:29:28.461Z,19.20
2018-08-11T07:31:56.665Z,19.20
2018-08-11T07:34:24.810Z,19.30
2018-08-11T07:36:53.016Z,19.10
2018-08-11T07:39:21.191Z,19.10
2018-08-11T07:41:49.370Z,19.00
2018-08-11T07:44:17.557Z,19.10
2018-08-11T07:46:45.793Z,19.00
2018-08-11T07:49:13.954Z,19.00
2018-08-11T07:51:42.135Z,19.10
2018-08-11T07:54:10.299Z,19.20
2018-08-11T07:56:38.551Z,19.30
2018-08-11T07:59:06.898Z,19.50
2018-08-11T08:01:35.110Z,19.60
2018-08-11T08:04:03.406Z,19.90
2018-08-11T08:06:31.582Z,20.30
2018-08-11T08:08:59.738Z,20.80
2018-08-11T08:11:27.922Z,21.20
2018-08-11T08:13:56.126Z,21.60
2018-08-11T08:16:24.285Z,21.70
2018-08-11T08:18:52.461Z,21.60
2018-08-11T08:21:20.631Z,21.60
2018-08-11T08:23:48.868Z,21.60
2018-08-11T08:26:17.111Z,21.70
2018-08-11T08:28:45.237Z,21.90
2018-08-11T08:31:13.430Z,22.10
2018-08-11T08:33:41.612Z,22.10
2018-08-11T08:36:09.803Z,21.90
2018-08-11T08:38:37.957Z,21.80
2018-08-11T08:41:06.141Z,21.60
2018-08-11T08:43:34.318Z,21.40
2018-08-11T08:46:02.519Z,21.40
2018-08-11T08:48:30.679Z,21.30
2018-08-11T08:50:58.846Z,21.30
2018-08-11T08:53:27.028Z,21.20
2018-08-11T08:55:55.190Z,21.20
2018-08-11T08:58:23.445Z,21.00
2018-08-11T09:00:51.597Z,21.00
2018-08-11T09:03:19.798Z,21.00
2018-08-11T09:05:47.982Z,20.90
2018-08-11T09:08:16.267Z,20.90
2018-08-11T09:10:44.405Z,20.90
2018-08-11T09:13:12.562Z,21.10
2018-08-11T09:15:40.757Z,21.20
2018-08-11T09:18:08.949Z,21.30
2018-08-11T09:20:37.102Z,21.50
2018-08-11T09:23:05.434Z,21.40
2018-08-11T09:25:33.606Z,21.40
2018-08-11T09:28:01.781Z,21.40
2018-08-11T09:30:29.966Z,21.40
2018-08-11T09:32:58.157Z,21.50
2018-08-11T09:35:26.313Z,21.60
2018-08-11T09:37:54.474Z,21.60
2018-08-11T09:40:22.713Z,21.70
2018-08-11T09:42:50.903Z,21.70
2018-08-11T09:45:19.197Z,21.70
2018-08-11T09:47:47.459Z,21.80
2018-08-11T09:50:15.750Z,21.80
2018-08-11T09:52:44.117Z,22.00
2018-08-11T09:55:12.273Z,22.20
2018-08-11T09:57:40.438Z,22.20
2018-08-11T10:00:09.238Z,22.30
2018-08-11T10:02:37.406Z,22.30
2018-08-11T10:05:06.048Z,22.30
2018-08-11T10:07:34.203Z,22.30
2018-08-11T10:10:02.350Z,22.40
2018-08-11T10:12:30.742Z,22.50
2018-08-11T10:14:58.914Z,22.40
2018-08-11T10:17:27.062Z,22.50
2018-08-11T10:19:55.226Z,22.50
2018-08-11T10:22:23.373Z,22.70
2018-08-11T10:24:51.537Z,22.70
2018-08-11T10:27:19.684Z,22.60
2018-08-11T10:29:47.913Z,22.70
2018-08-11T10:32:16.066Z,22.80
2018-08-11T10:34:44.233Z,22.90
2018-08-11T10:37:12.398Z,23.00
2018-08-11T10:39:40.597Z,22.90
2018-08-11T10:42:08.746Z,22.90
2018-08-11T10:44:36.933Z,22.90
2018-08-11T10:47:05.197Z,22.90
2018-08-11T10:49:33.289Z,22.90
2018-08-11T10:52:01.474Z,22.90
2018-08-11T10:54:29.666Z,22.90
2018-08-11T10:56:57.895Z,23.00
2018-08-11T10:59:26.062Z,23.00
2018-08-11T11:01:54.250Z,23.00
2018-08-11T11:04:22.417Z,23.10
2018-08-11T11:06:50.598Z,23.10
2018-08-11T11:09:18.867Z,22.90
2018-08-11T11:11:47.070Z,22.80
2018-08-11T11:14:15.280Z,22.70
2018-08-11T11:16:43.413Z,22.60
2018-08-11T11:19:11.658Z,22.50
2018-08-11T11:21:39.822Z,22.50
2018-08-11T11:24:08.014Z,22.60
2018-08-11T11:26:36.170Z,22.60
2018-08-11T11:29:04.375Z,22.50
2018-08-11T11:31:32.557Z,22.60
2018-08-11T11:34:00.801Z,22.70
2018-08-11T11:36:28.971Z,22.80
2018-08-11T11:38:58.390Z,22.80
2018-08-11T11:41:26.552Z,22.90
2018-08-11T11:43:54.738Z,23.10
2018-08-11T11:46:22.933Z,23.20
2018-08-11T11:48:51.542Z,23.30
2018-08-11T11:51:19.699Z,23.40
2018-08-11T11:53:47.940Z,23.40
2018-08-11T11:56:16.163Z,23.30
2018-08-11T11:58:44.383Z,23.20
2018-08-11T12:01:12.562Z,23.20
2018-08-11T12:03:40.722Z,23.00
2018-08-11T12:06:08.957Z,22.90
2018-08-11T12:08:37.184Z,22.90
2018-08-11T12:11:05.455Z,22.90
2018-08-11T12:13:33.662Z,23.10
2018-08-11T12:16:01.857Z,23.20
2018-08-11T12:18:30.197Z,23.30
2018-08-11T12:20:58.357Z,23.30
2018-08-11T12:23:26.514Z,23.40
2018-08-11T12:25:54.674Z,23.20
2018-08-11T12:28:22.910Z,23.10
2018-08-11T12:30:51.097Z,23.20
2018-08-11T12:33:20.797Z,23.10
2018-08-11T12:35:49.461Z,23.10
2018-08-11T12:38:17.775Z,23.00
2018-08-11T12:40:45.925Z,23.00
2018-08-11T12:43:14.134Z,22.90
2018-08-11T12:45:42.334Z,22.90
2018-08-11T12:48:10.503Z,22.80
2018-08-11T12:50:38.662Z,22.80
2018-08-11T12:53:06.868Z,22.90
2018-08-11T12:55:35.044Z,23.00
2018-08-11T12:58:03.199Z,23.00
2018-08-11T13:00:31.559Z,23.00
2018-08-11T13:03:00.484Z,23.00
2018-08-11T13:05:28.682Z,23.00
2018-08-11T13:07:56.847Z,22.90
2018-08-11T13:10:25.722Z,22.90
2018-08-11T13:12:53.865Z,22.90
2018-08-11T13:15:22.064Z,23.00
2018-08-11T13:17:50.243Z,23.00
2018-08-11T13:20:18.478Z,23.00
2018-08-11T13:22:46.666Z,23.10
2018-08-11T13:25:14.870Z,23.20
2018-08-11T13:27:44.295Z,23.30
2018-08-11T13:30:12.973Z,23.30
2018-08-11T13:32:41.162Z,23.40
2018-08-11T13:35:09.338Z,23.40
2018-08-11T13:37:37.505Z,23.40
2018-08-11T13:40:06.022Z,23.50
2018-08-11T13:42:34.233Z,23.40
2018-08-11T13:45:02.433Z,23.30
2018-08-11T13:47:30.622Z,23.20
2018-08-11T13:49:58.851Z,23.20
2018-08-11T13:52:27.023Z,23.10
2018-08-11T13:54:55.193Z,22.90
2018-08-11T13:57:23.351Z,22.90
2018-08-11T13:59:51.598Z,22.90
2018-08-11T14:02:19.769Z,23.00
2018-08-11T14:04:47.986Z,23.20
2018-08-11T14:07:16.150Z,23.30
2018-08-11T14:09:44.370Z,23.20
2018-08-11T14:12:12.573Z,23.30
2018-08-11T14:14:40.751Z,23.40
2018-08-11T14:17:09.017Z,23.40
2018-08-11T14:19:37.172Z,23.50
2018-08-11T14:22:05.374Z,23.50
2018-08-11T14:24:33.558Z,23.50
2018-08-11T14:27:01.742Z,23.40
2018-08-11T14:29:29.974Z,23.30
2018-08-11T14:31:58.129Z,23.20
2018-08-11T14:34:26.372Z,23.10
2018-08-11T14:36:54.489Z,23.10
2018-08-11T14:39:23.190Z,23.00
2018-08-11T14:41:51.379Z,23.10
2018-08-11T14:44:19.654Z,23.20
2018-08-11T14:46:47.869Z,23.30
2018-08-11T14:49:16.062Z,23.20
2018-08-11T14:51:44.286Z,23.20
2018-08-11T14:54:12.434Z,23.20
2018-08-11T14:56:40.633Z,23.30
2018-08-11T14:59:08.923Z,23.30
2018-08-11T15:01:37.090Z,23.30
2018-08-11T15:04:05.301Z,23.30
2018-08-11T15:06:33.558Z,23.20
2018-08-11T15:09:01.737Z,23.20
2018-08-11T15:11:29.936Z,23.20
2018-08-11T15:13:58.119Z,23.20
2018-08-11T15:16:26.353Z,23.20
2018-08-11T15:18:54.526Z,23.10
2018-08-11T15:21:22.683Z,23.10
2018-08-11T15:23:50.858Z,23.10
2018-08-11T15:26:19.038Z,23.00
2018-08-11T15:28:48.001Z,23.00
2018-08-11T15:31:16.194Z,23.00
2018-08-11T15:33:44.370Z,23.10
2018-08-11T15:36:12.538Z,23.10
2018-08-11T15:38:40.893Z,23.20
2018-08-11T15:41:09.070Z,23.20
2018-08-11T15:43:37.233Z,23.20
2018-08-11T15:46:05.438Z,23.10
2018-08-11T15:48:40.461Z,23.10
2018-08-11T15:51:08.633Z,23.10
2018-08-11T15:53:36.829Z,23.10
2018-08-11T15:56:05.037Z,23.10
2018-08-11T15:58:33.187Z,23.10
2018-08-11T16:01:01.406Z,23.10
2018-08-11T16:03:29.629Z,23.10
2018-08-11T16:05:57.990Z,23.00
2018-08-11T16:08:26.161Z,23.00
2018-08-11T16:10:54.741Z,23.00
2018-08-11T16:13:22.990Z,23.00
2018-08-11T16:15:51.159Z,23.00
2018-08-11T16:18:19.413Z,22.90
2018-08-11T16:20:47.646Z,23.00
2018-08-11T16:23:15.801Z,22.90
2018-08-11T16:25:43.979Z,22.90
2018-08-11T16:28:12.145Z,22.90
2018-08-11T16:30:40.345Z,22.80
2018-08-11T16:33:08.513Z,22.80
2018-08-11T16:35:37.051Z,22.80
2018-08-11T16:38:05.523Z,22.80
2018-08-11T16:40:33.720Z,22.80
2018-08-11T16:43:01.890Z,22.80
2018-08-11T16:45:30.054Z,22.80
2018-08-11T16:47:58.328Z,22.70
2018-08-11T16:50:26.410Z,22.70
2018-08-11T16:52:54.600Z,22.70
2018-08-11T16:55:22.761Z,22.70
2018-08-11T16:57:50.988Z,22.70
2018-08-11T17:00:19.217Z,22.70
2018-08-11T17:02:47.662Z,22.60
2018-08-11T17:05:15.825Z,22.60
2018-08-11T17:07:44.074Z,22.60
2018-08-11T17:10:12.236Z,22.60
2018-08-11T17:12:40.627Z,22.60
2018-08-11T17:15:09.721Z,22.60
2018-08-11T17:17:37.960Z,22.60
2018-08-11T17:20:06.934Z,22.60
2018-08-11T17:22:35.113Z,22.50
2018-08-11T17:25:03.350Z,22.50
2018-08-11T17:27:31.516Z,22.40
2018-08-11T17:29:59.715Z,22.50
2018-08-11T17:32:27.954Z,22.50
2018-08-11T17:34:56.057Z,22.40
2018-08-11T17:37:24.237Z,22.40
2018-08-11T17:39:59.061Z,22.40
2018-08-11T17:42:27.256Z,22.40
2018-08-11T17:44:55.418Z,22.40
2018-08-11T17:47:23.626Z,22.50
2018-08-11T17:49:51.864Z,22.50
2018-08-11T17:52:20.062Z,22.50
2018-08-11T17:54:48.265Z,22.50
2018-08-11T17:57:16.398Z,22.40
2018-08-11T17:59:44.573Z,22.40
2018-08-11T18:02:12.753Z,22.40
2018-08-11T18:04:40.946Z,22.40
2018-08-11T18:07:09.123Z,22.30
2018-08-11T18:09:37.334Z,22.40
2018-08-11T18:12:05.498Z,22.40
2018-08-11T18:14:33.685Z,22.40
2018-08-11T18:17:01.906Z,22.30
2018-08-11T18:19:30.138Z,22.30
2018-08-11T18:21:58.373Z,22.30
2018-08-11T18:24:26.545Z,22.20
2018-08-11T18:26:54.725Z,22.20
2018-08-11T18:29:22.974Z,22.20
2018-08-11T18:31:51.154Z,22.10
2018-08-11T18:34:19.445Z,22.10
2018-08-11T18:36:47.617Z,22.00
2018-08-11T18:39:15.794Z,22.00
2018-08-11T18:41:44.274Z,22.00
2018-08-11T18:44:14.018Z,21.90
2018-08-11T18:46:42.277Z,21.90
2018-08-11T18:49:10.519Z,21.90
2018-08-11T18:51:38.674Z,21.90
2018-08-11T18:54:06.856Z,21.80
2018-08-11T18:56:35.065Z,21.80
2018-08-11T18:59:03.257Z,21.80
2018-08-11T19:01:31.447Z,21.80
2018-08-11T19:03:59.674Z,21.70
2018-08-11T19:06:28.198Z,21.60
2018-08-11T19:08:56.381Z,21.60
2018-08-11T19:11:24.578Z,21.50
2018-08-11T19:13:52.786Z,21.50
2018-08-11T19:16:20.949Z,21.50
2018-08-11T19:18:49.155Z,21.40
2018-08-11T19:21:17.330Z,21.40
2018-08-11T19:23:45.510Z,21.30
2018-08-11T19:26:13.721Z,21.10
2018-08-11T19:28:41.929Z,21.00
2018-08-11T19:31:11.213Z,20.80
2018-08-11T19:33:39.417Z,20.80
2018-08-11T19:36:07.634Z,20.60
2018-08-11T19:38:35.822Z,20.60
2018-08-11T19:41:04.037Z,20.50
2018-08-11T19:43:32.272Z,20.40
2018-08-11T19:46:00.515Z,20.40
2018-08-11T19:48:28.653Z,20.30
2018-08-11T19:50:56.845Z,20.20
2018-08-11T19:53:25.250Z,20.10
2018-08-11T19:55:53.487Z,20.10
2018-08-11T19:58:21.770Z,20.10
2018-08-11T20:00:49.942Z,20.10
2018-08-11T20:03:18.663Z,20.00
2018-08-11T20:05:46.855Z,19.90
2018-08-11T20:08:15.047Z,20.00
2018-08-11T20:10:43.275Z,20.00
2018-08-11T20:13:11.461Z,20.00
2018-08-11T20:15:39.663Z,19.90
2018-08-11T20:18:07.821Z,19.80
2018-08-11T20:20:36.023Z,19.70
2018-08-11T20:23:04.192Z,19.60
2018-08-11T20:25:32.539Z,19.50
2018-08-11T20:28:00.647Z,19.50
2018-08-11T20:30:28.842Z,19.30
2018-08-11T20:32:57.045Z,19.20
2018-08-11T20:35:25.193Z,19.10
2018-08-11T20:37:53.367Z,19.10
2018-08-11T20:40:21.539Z,19.10
2018-08-11T20:42:49.727Z,19.00
2018-08-11T20:45:17.905Z,19.00
2018-08-11T20:47:46.066Z,19.00
2018-08-11T20:50:14.254Z,18.80
2018-08-11T20:52:42.565Z,18.80
2018-08-11T20:55:10.757Z,18.70
2018-08-11T20:57:38.921Z,18.50
2018-08-11T21:00:09.442Z,18.20
2018-08-11T21:02:37.674Z,18.20
2018-08-11T21:05:08.348Z,18.10
2018-08-11T21:07:37.153Z,18.10
2018-08-11T21:10:07.250Z,18.20
2018-08-11T21:12:35.458Z,18.30
2018-08-11T21:15:03.706Z,18.20
2018-08-11T21:17:31.937Z,18.20
2018-08-11T21:20:00.098Z,18.20
2018-08-11T21:22:28.266Z,18.10
2018-08-11T21:24:56.485Z,17.90
2018-08-11T21:27:24.681Z,17.90
2018-08-11T21:29:52.841Z,17.70
2018-08-11T21:32:21.049Z,17.70
2018-08-11T21:34:49.937Z,17.50
2018-08-11T21:37:18.188Z,17.50
2018-08-11T21:39:46.333Z,17.50
2018-08-11T21:42:14.499Z,17.60
2018-08-11T21:44:42.654Z,17.70
2018-08-11T21:47:10.821Z,17.70
2018-08-11T21:49:39.042Z,17.80
2018-08-11T21:52:07.217Z,17.80
2018-08-11T21:54:35.409Z,17.90
2018-08-11T21:57:03.659Z,17.90
2018-08-11T21:59:31.837Z,17.90
2018-08-11T22:02:00.012Z,17.90
2018-08-11T22:04:35.294Z,17.80
2018-08-11T22:07:05.398Z,17.60
2018-08-11T22:09:33.558Z,17.60
2018-08-11T22:12:02.058Z,17.50
2018-08-11T22:14:30.272Z,17.50
2018-08-11T22:16:58.731Z,17.50
2018-08-11T22:19:26.954Z,17.50
2018-08-11T22:21:55.122Z,17.50
2018-08-11T22:24:23.425Z,17.50
2018-08-11T22:26:51.623Z,17.50
2018-08-11T22:29:19.839Z,17.50
2018-08-11T22:31:48.058Z,17.50
2018-08-11T22:34:16.221Z,17.40
2018-08-11T22:36:44.446Z,17.40
2018-08-11T22:39:12.598Z,17.40
2018-08-11T22:41:40.921Z,17.40
2018-08-11T22:44:09.079Z,17.40
2018-08-11T22:46:37.374Z,17.40
2018-08-11T22:49:05.673Z,17.40
2018-08-11T22:51:33.929Z,17.40
2018-08-11T22:54:02.094Z,17.40
2018-08-11T22:56:30.278Z,17.30
2018-08-11T22:58:58.502Z,17.10
2018-08-11T23:01:26.685Z,17.00
2018-08-11T23:03:54.993Z,17.00
2018-08-11T23:06:23.150Z,16.90
2018-08-11T23:08:51.314Z,16.90
2018-08-11T23:11:19.486Z,17.00
2018-08-11T23:13:47.918Z,17.00
2018-08-11T23:16:16.102Z,17.00
2018-08-11T23:18:44.285Z,17.00
2018-08-11T23:21:12.442Z,16.90
2018-08-11T23:23:40.625Z,16.90
2018-08-11T23:26:08.779Z,16.90
2018-08-11T23:28:36.941Z,16.90
2018-08-11T23:31:05.102Z,16.90
2018-08-11T23:33:33.287Z,17.00
2018-08-11T23:36:01.478Z,17.00
2018-08-11T23:38:29.616Z,16.90
2018-08-11T23:40:57.783Z,16.80
2018-08-11T23:43:25.955Z,16.90
2018-08-11T23:45:54.115Z,17.10
2018-08-11T23:48:22.356Z,17.10
2018-08-11T23:50:51.365Z,17.10
2018-08-11T23:53:19.581Z,17.10
2018-08-11T23:55:47.779Z,16.90
2018-08-11T23:58:15.957Z,16.90
